Time;durP1;ratioP1;P1;durP2;ratioP2;P2;SDS_P1;SDS_P2;PMS_P1;PMS_P2;Temp;Humidity;BMP_temperature;BMP_pressure;BME280_temperature;BME280_humidity;BME280_pressure;Samples;Min_cycle;Max_cycle;Signal;HPM_P1;HPM_P2
2021/07/03 00:02:23;;;;;;;5.05;2.15;;;27.70;25.80;;;;;;20910950;28;20544;-60
2021/07/03 00:12:24;;;;;;;10.50;8.50;;;27.60;26.00;;;;;;20909557;28;20393;-63
2021/07/03 00:22:26;;;;;;;12.07;9.70;;;27.50;26.30;;;;;;20916329;28;20413;-65
2021/07/03 00:32:28;;;;;;;4.75;2.63;;;27.40;26.70;;;;;;20923444;28;20481;-64
2021/07/03 00:42:29;;;;;;;3.83;2.53;;;27.30;26.90;;;;;;20922862;28;20072;-60
2021/07/03 00:52:32;;;;;;;4.60;4.07;;;27.20;27.30;;;;;;20922093;28;20412;-61
2021/07/03 01:02:33;;;;;;;3.95;2.35;;;27.00;28.30;;;;;;20921337;28;20053;-65
2021/07/03 01:12:35;;;;;;;4.20;2.20;;;26.90;28.90;;;;;;20920886;28;20057;-65
2021/07/03 01:22:39;;;;;;;5.55;3.00;;;26.70;29.50;;;;;;20919741;28;20064;-64
2021/07/03 01:32:41;;;;;;;5.45;1.90;;;26.60;29.80;;;;;;20918739;28;20053;-61
2021/07/03 01:42:43;;;;;;;2.90;1.92;;;26.40;30.20;;;;;;20918459;28;20048;-58
2021/07/03 01:52:44;;;;;;;3.00;1.90;;;26.20;30.60;;;;;;20917751;28;20052;-59
2021/07/03 02:02:47;;;;;;;6.55;3.10;;;26.10;30.90;;;;;;20916458;28;20136;-66
2021/07/03 02:12:48;;;;;;;3.55;1.95;;;25.90;31.40;;;;;;20915552;28;20055;-64
2021/07/03 02:22:50;;;;;;;2.95;1.90;;;25.80;31.80;;;;;;20914922;28;20115;-57
2021/07/03 02:32:53;;;;;;;3.53;2.55;;;25.70;32.40;;;;;;20913899;28;20102;-56
2021/07/03 02:42:54;;;;;;;3.08;2.45;;;25.60;32.80;;;;;;20913119;28;20048;-56
2021/07/03 02:52:55;;;;;;;7.72;2.40;;;25.50;32.80;;;;;;20912894;28;20099;-56
2021/07/03 03:02:57;;;;;;;3.33;2.30;;;25.40;32.90;;;;;;20912650;28;20091;-62
2021/07/03 03:13:06;;;;;;;5.47;2.70;;;25.30;33.10;;;;;;20912731;28;20055;-65
2021/07/03 03:23:14;;;;;;;3.92;2.40;;;25.20;33.30;;;;;;20828551;28;20480;-66
2021/07/03 03:33:18;;;;;;;7.53;2.35;;;25.10;33.90;;;;;;20828795;28;20512;-64
2021/07/03 03:43:27;;;;;;;3.55;2.22;;;25.10;34.10;;;;;;20828878;28;20093;-61
2021/07/03 03:53:34;;;;;;;2.50;1.88;;;25.00;34.50;;;;;;20829321;28;20053;-62
2021/07/03 04:03:41;;;;;;;4.53;1.73;;;24.90;34.70;;;;;;20843289;28;20045;-60
2021/07/03 04:13:50;;;;;;;2.72;1.60;;;24.80;34.80;;;;;;20842579;28;20057;-60
2021/07/03 04:24:01;;;;;;;4.43;1.73;;;24.70;35.10;;;;;;20915312;28;20135;-57
2021/07/03 04:34:16;;;;;;;2.45;1.60;;;24.60;35.30;;;;;;20923353;28;20040;-63
2021/07/03 04:44:37;;;;;;;3.22;2.20;;;24.50;35.80;;;;;;20922341;28;20455;-64
2021/07/03 04:54:58;;;;;;;3.80;2.10;;;24.30;36.10;;;;;;20921671;28;20045;-56
2021/07/03 05:05:05;;;;;;;4.45;2.60;;;24.20;36.30;;;;;;20921626;28;20052;-58
2021/07/03 05:15:08;;;;;;;2.80;1.95;;;24.20;36.60;;;;;;20920230;28;20064;-64
2021/07/03 05:25:12;;;;;;;3.15;2.10;;;24.20;36.70;;;;;;20919345;28;20049;-61
2021/07/03 05:35:17;;;;;;;5.47;2.22;;;24.10;37.00;;;;;;20918280;28;20102;-57
2021/07/03 05:45:20;;;;;;;3.33;1.85;;;24.10;37.20;;;;;;20918028;28;20051;-56
2021/07/03 05:55:22;;;;;;;3.10;1.88;;;24.10;37.20;;;;;;20917745;28;20507;-59
2021/07/03 06:05:24;;;;;;;3.95;3.08;;;24.10;37.00;;;;;;20916637;28;20607;-65
2021/07/03 06:15:27;;;;;;;4.80;3.22;;;24.20;36.70;;;;;;20915576;28;20049;-55
2021/07/03 06:25:29;;;;;;;5.15;2.42;;;24.40;36.70;;;;;;20914606;28;20099;-62
2021/07/03 06:35:33;;;;;;;4.32;2.40;;;24.70;36.60;;;;;;20913893;28;20132;-55
2021/07/03 06:45:34;;;;;;;3.58;2.47;;;24.80;36.50;;;;;;20914341;28;20060;-64
2021/07/03 06:55:36;;;;;;;5.22;1.90;;;24.90;36.40;;;;;;20913821;28;20091;-62
2021/07/03 07:05:38;;;;;;;;;;;25.00;36.30;;;;;;20912665;28;20045;-64
2021/07/03 07:15:42;;;;;;;5.60;2.13;;;25.40;36.00;;;;;;20912065;28;19921;-64
2021/07/03 07:25:44;;;;;;;;;;;25.80;35.50;;;;;;20913297;28;20076;-65
2021/07/03 07:35:47;;;;;;;5.32;2.45;;;25.90;35.60;;;;;;20926808;28;20280;-66
2021/07/03 07:45:50;;;;;;;7.47;2.45;;;26.20;35.70;;;;;;20928132;28;20459;-65
2021/07/03 07:55:52;;;;;;;4.72;2.38;;;26.90;34.50;;;;;;20927497;28;20049;-57
2021/07/03 08:05:55;;;;;;;4.15;2.42;;;27.60;34.00;;;;;;20925971;28;20137;-57
2021/07/03 08:15:59;;;;;;;3.63;2.70;;;27.60;33.50;;;;;;20925051;28;20065;-65
2021/07/03 08:26:00;;;;;;;7.00;2.25;;;27.60;32.80;;;;;;20925539;28;20069;-64
2021/07/03 08:36:02;;;;;;;4.70;2.00;;;27.50;32.90;;;;;;20924639;28;20156;-65
2021/07/03 08:46:04;;;;;;;3.90;2.10;;;27.70;32.80;;;;;;20924159;28;20056;-63
2021/07/03 08:56:07;;;;;;;4.70;2.60;;;28.00;32.50;;;;;;20922445;28;20052;-59
2021/07/03 09:06:09;;;;;;;3.38;2.30;;;28.70;31.60;;;;;;20921370;28;20053;-65
2021/07/03 09:16:14;;;;;;;5.57;2.25;;;29.20;31.10;;;;;;20920250;28;20055;-64
2021/07/03 09:26:16;;;;;;;3.22;2.35;;;29.70;30.00;;;;;;20921096;28;20044;-68
2021/07/03 09:36:31;;;;;;;2.85;2.00;;;29.90;30.10;;;;;;20923533;28;20530;-68
2021/07/03 09:46:36;;;;;;;3.92;1.90;;;30.10;28.80;;;;;;20918595;28;20045;-66
2021/07/03 09:56:39;;;;;;;3.45;2.08;;;30.30;29.10;;;;;;20917097;28;20048;-57
2021/07/03 10:07:05;;;;;;;3.25;1.98;;;30.70;29.00;;;;;;20917648;28;20477;-67
2021/07/03 10:17:07;;;;;;;7.55;1.77;;;31.10;28.50;;;;;;20909193;28;20053;-67
2021/07/03 10:27:20;;;;;;;2.65;1.77;;;31.10;28.10;;;;;;20915426;28;20044;-66
2021/07/03 10:37:32;;;;;;;71.63;64.53;;;31.20;27.60;;;;;;20915722;28;20088;-65
2021/07/03 10:47:35;;;;;;;2.10;1.67;;;31.30;27.60;;;;;;20914909;28;20045;-67
2021/07/03 10:57:44;;;;;;;8.23;2.70;;;31.40;26.90;;;;;;20914874;28;20049;-69
2021/07/03 11:07:46;;;;;;;3.30;1.93;;;31.30;27.40;;;;;;20913140;28;20051;-63
2021/07/03 11:17:49;;;;;;;1.88;1.50;;;31.50;26.50;;;;;;20911727;28;20056;-62
2021/07/03 11:27:51;;;;;;;3.75;1.90;;;31.60;26.40;;;;;;20893823;28;20052;-65
2021/07/03 11:37:52;;;;;;;6.82;3.83;;;31.50;25.50;;;;;;20893659;28;20515;-61
2021/07/03 11:48:03;;;;;;;2.20;1.50;;;31.70;25.60;;;;;;20910350;28;20048;-68
2021/07/03 11:58:05;;;;;;;2.17;1.40;;;31.80;25.70;;;;;;20910088;28;20099;-64
2021/07/03 12:08:08;;;;;;;4.05;1.60;;;31.90;25.60;;;;;;20892868;28;20049;-68
2021/07/03 12:18:10;;;;;;;8.63;7.38;;;31.80;26.00;;;;;;20916539;28;20061;-68
2021/07/03 12:28:11;;;;;;;4.35;2.13;;;32.10;26.10;;;;;;20924382;28;20049;-68
2021/07/03 12:38:14;;;;;;;5.57;2.28;;;32.40;27.20;;;;;;20923928;28;20095;-59
2021/07/03 12:48:15;;;;;;;1.92;1.30;;;32.60;27.20;;;;;;20922802;28;20072;-68
2021/07/03 12:58:20;;;;;;;2.53;1.40;;;32.60;27.50;;;;;;20923665;28;20140;-70
2021/07/03 13:08:21;;;;;;;2.47;1.58;;;32.70;28.50;;;;;;20920424;28;20048;-67
2021/07/03 13:18:23;;;;;;;5.60;1.20;;;32.70;28.90;;;;;;20919923;28;20049;-68
2021/07/03 13:28:25;;;;;;;3.38;2.47;;;32.90;28.60;;;;;;20918328;28;20500;-64
2021/07/03 13:38:27;;;;;;;2.60;1.80;;;32.70;28.80;;;;;;20917432;28;20082;-68
2021/07/03 13:48:29;;;;;;;2.55;1.00;;;32.90;28.10;;;;;;20916869;28;20123;-61
2021/07/03 13:58:31;;;;;;;2.35;1.00;;;32.80;27.90;;;;;;20899863;28;20059;-68
2021/07/03 14:08:33;;;;;;;1.55;0.88;;;33.00;27.50;;;;;;20917607;28;20095;-68
2021/07/03 14:18:36;;;;;;;2.28;0.80;;;33.00;27.40;;;;;;20916398;28;20135;-68
2021/07/03 14:28:38;;;;;;;1.88;1.23;;;33.10;27.10;;;;;;20914172;28;20045;-68
2021/07/03 14:38:40;;;;;;;2.20;1.45;;;33.10;26.90;;;;;;20915196;28;20052;-65
2021/07/03 14:48:42;;;;;;;1.38;0.90;;;33.10;27.10;;;;;;20913931;28;20409;-67
2021/07/03 14:58:46;;;;;;;2.15;1.10;;;33.30;26.10;;;;;;20912713;28;20080;-62
2021/07/03 15:08:48;;;;;;;2.15;0.90;;;33.10;26.40;;;;;;20914046;28;20045;-64
2021/07/03 15:18:50;;;;;;;3.25;1.20;;;33.10;25.50;;;;;;20914416;28;20065;-67
2021/07/03 15:28:52;;;;;;;3.72;2.00;;;32.90;25.80;;;;;;20914629;28;20080;-67
2021/07/03 15:38:54;;;;;;;2.88;1.52;;;33.00;26.60;;;;;;20940030;28;20107;-66
2021/07/03 15:48:56;;;;;;;2.28;1.27;;;33.10;26.80;;;;;;20933876;28;20045;-65
2021/07/03 15:58:57;;;;;;;2.55;1.33;;;33.10;27.20;;;;;;20914171;28;20076;-69
2021/07/03 16:08:59;;;;;;;6.15;1.77;;;33.10;27.30;;;;;;20927299;28;20049;-67
2021/07/03 16:19:02;;;;;;;4.95;2.30;;;32.90;27.60;;;;;;20925916;28;20152;-59
2021/07/03 16:29:03;;;;;;;6.38;1.90;;;32.90;28.10;;;;;;20925170;28;20533;-59
2021/07/03 16:39:05;;;;;;;1.63;1.13;;;32.90;28.30;;;;;;20924502;28;20489;-64
2021/07/03 16:49:07;;;;;;;3.30;1.75;;;32.80;28.70;;;;;;20923259;28;20592;-59
2021/07/03 16:59:11;;;;;;;2.50;1.40;;;32.80;28.70;;;;;;20922727;28;20049;-66
2021/07/03 17:09:12;;;;;;;3.00;1.40;;;32.60;28.50;;;;;;20922003;28;20133;-67
2021/07/03 17:19:14;;;;;;;2.80;1.20;;;32.50;28.40;;;;;;20920955;28;20071;-68
2021/07/03 17:29:18;;;;;;;3.90;1.70;;;32.30;28.60;;;;;;20920371;28;20404;-59
2021/07/03 17:39:19;;;;;;;1.55;1.15;;;32.20;29.30;;;;;;20919454;28;20520;-64
2021/07/03 17:49:21;;;;;;;2.95;1.10;;;32.20;29.80;;;;;;20919584;28;20091;-64
2021/07/03 17:59:24;;;;;;;1.70;1.30;;;32.10;30.40;;;;;;20918046;28;20049;-67
2021/07/03 18:09:26;;;;;;;1.70;1.17;;;31.80;31.00;;;;;;20917714;28;20059;-65
2021/07/03 18:19:27;;;;;;;2.50;1.50;;;31.60;31.30;;;;;;20916325;28;20068;-66
2021/07/03 18:29:29;;;;;;;1.38;0.90;;;31.60;31.50;;;;;;20916433;28;20049;-69
2021/07/03 18:39:31;;;;;;;4.05;2.17;;;31.40;32.20;;;;;;20915731;28;20056;-58
2021/07/03 18:49:34;;;;;;;3.50;1.08;;;31.10;33.10;;;;;;20915448;28;20094;-67
2021/07/03 18:59:35;;;;;;;2.50;1.00;;;31.00;33.30;;;;;;20914071;28;20493;-58
2021/07/03 19:09:37;;;;;;;2.47;1.50;;;30.80;33.30;;;;;;20913967;28;20128;-61
2021/07/03 19:19:39;;;;;;;1.42;0.82;;;30.50;33.70;;;;;;20913728;28;20130;-67
2021/07/03 19:29:40;;;;;;;2.20;1.40;;;30.40;34.00;;;;;;20927820;28;20057;-63
2021/07/03 19:39:42;;;;;;;2.08;0.80;;;30.10;34.60;;;;;;20928651;28;20048;-71
2021/07/03 19:49:44;;;;;;;5.78;1.50;;;29.90;35.00;;;;;;20927699;28;20131;-67
2021/07/03 19:59:47;;;;;;;2.78;1.30;;;29.80;35.50;;;;;;20927339;28;20053;-69
2021/07/03 20:09:48;;;;;;;3.67;1.08;;;29.60;35.90;;;;;;20927697;28;20077;-62
2021/07/03 20:19:52;;;;;;;3.47;2.00;;;29.30;36.70;;;;;;20925825;28;20116;-65
2021/07/03 20:29:55;;;;;;;2.45;1.33;;;29.20;37.30;;;;;;20924730;28;20048;-57
2021/07/03 20:39:56;;;;;;;2.28;1.48;;;29.10;37.80;;;;;;20923012;28;20055;-59
2021/07/03 20:49:58;;;;;;;5.72;3.47;;;28.90;38.10;;;;;;20922874;28;20045;-58
2021/07/03 21:00:00;;;;;;;1.90;1.00;;;28.70;37.60;;;;;;20922122;28;20067;-68
2021/07/03 21:10:03;;;;;;;3.97;1.73;;;28.60;36.90;;;;;;20921655;28;20045;-59
2021/07/03 21:20:09;;;;;;;6.47;4.38;;;28.60;36.80;;;;;;20919826;28;20065;-58
2021/07/03 21:30:13;;;;;;;4.55;1.80;;;28.50;36.80;;;;;;20919714;28;20123;-66
2021/07/03 21:40:18;;;;;;;1.95;0.80;;;28.30;37.00;;;;;;20920585;28;20056;-65
2021/07/03 21:50:20;;;;;;;1.80;1.10;;;28.10;37.30;;;;;;20920967;28;20068;-69
2021/07/03 22:00:30;;;;;;;1.88;1.05;;;28.00;37.40;;;;;;20918811;28;20052;-65
2021/07/03 22:10:33;;;;;;;1.70;1.07;;;27.90;37.60;;;;;;20921510;28;20489;-69
2021/07/03 22:20:34;;;;;;;1.45;0.98;;;27.70;38.20;;;;;;20921878;28;20184;-67
2021/07/03 22:30:36;;;;;;;1.60;1.00;;;27.60;38.70;;;;;;20919557;28;20048;-66
2021/07/03 22:40:39;;;;;;;1.70;0.90;;;27.60;39.20;;;;;;20923459;28;20041;-69
2021/07/03 22:50:40;;;;;;;2.80;1.70;;;27.40;39.80;;;;;;20927618;28;20609;-57
2021/07/03 23:00:44;;;;;;;2.40;1.58;;;27.40;40.20;;;;;;20914672;28;20056;-67
2021/07/03 23:10:45;;;;;;;2.00;1.00;;;27.20;40.70;;;;;;20915498;28;20447;-67
2021/07/03 23:20:51;;;;;;;2.38;1.15;;;27.20;40.70;;;;;;20914587;28;20060;-59
2021/07/03 23:30:53;;;;;;;1.60;1.10;;;27.10;40.70;;;;;;20913749;28;20056;-66
2021/07/03 23:40:55;;;;;;;3.05;2.00;;;27.00;40.90;;;;;;20897757;28;20049;-67
2021/07/03 23:50:56;;;;;;;2.00;1.10;;;26.90;41.10;;;;;;20896477;28;20504;-69
